Time;durP1;ratioP1;P1;durP2;ratioP2;P2;SDS_P1;SDS_P2;PMS_P1;PMS_P2;Temp;Humidity;BMP_temperature;BMP_pressure;BME280_temperature;BME280_humidity;BME280_pressure;Samples;Min_cycle;Max_cycle;Signal;HPM_P1;HPM_P2
2024/01/16 00:00:23;;;;;;;0.30;0.30;;;;;;;3.15;91.98;93110.44;5069765;28;20243;-85
2024/01/16 00:02:50;;;;;;;0.40;0.40;;;;;;;2.77;92.10;93100.47;5067076;28;20209;-85
2024/01/16 00:05:22;;;;;;;0.20;0.20;;;;;;;2.90;92.13;93140.69;5062244;28;20206;-85
2024/01/16 00:07:49;;;;;;;0.20;0.20;;;;;;;2.94;93.24;93153.13;5065010;28;20656;-85
2024/01/16 00:10:16;;;;;;;0.20;0.20;;;;;;;2.92;92.86;93127.81;5063547;28;20218;-82
2024/01/16 00:12:45;;;;;;;0.43;0.43;;;;;;;3.12;93.49;93138.66;5054930;28;20567;-81
2024/01/16 00:15:12;;;;;;;0.75;0.70;;;;;;;2.99;91.92;93134.25;5040834;28;20211;-84
2024/01/16 00:17:39;;;;;;;0.20;0.20;;;;;;;2.85;91.97;93118.38;5054982;28;20231;-83
2024/01/16 00:20:06;;;;;;;0.70;0.70;;;;;;;2.84;92.01;93111.47;5048584;28;20201;-82
2024/01/16 00:22:34;;;;;;;0.20;0.20;;;;;;;3.10;90.87;93142.72;5047457;28;20225;-81
2024/01/16 00:25:02;;;;;;;0.35;0.35;;;;;;;3.35;91.07;93147.25;5042633;28;20205;-82
2024/01/16 00:27:28;;;;;;;0.82;0.82;;;;;;;3.47;90.99;93143.91;5047154;28;20551;-80
2024/01/16 00:29:55;;;;;;;0.20;0.20;;;;;;;3.28;90.02;93130.13;5053876;28;20195;-79
2024/01/16 00:32:22;;;;;;;0.20;0.20;;;;;;;3.14;91.58;93144.44;5054189;28;20211;-79
2024/01/16 00:34:49;;;;;;;0.93;0.85;;;;;;;3.34;92.94;93161.72;5053078;28;20208;-78
2024/01/16 00:37:16;;;;;;;0.38;0.38;;;;;;;3.53;92.46;93167.50;5054288;28;20575;-78
2024/01/16 00:39:45;;;;;;;0.60;0.60;;;;;;;3.78;91.08;93160.50;5039051;28;20568;-76
2024/01/16 00:42:11;;;;;;;0.52;0.52;;;;;;;3.46;89.87;93132.41;5052437;28;20212;-78
2024/01/16 00:44:40;;;;;;;0.30;0.30;;;;;;;3.44;89.65;93145.31;5053529;28;20196;-78
2024/01/16 00:47:07;;;;;;;0.20;0.20;;;;;;;3.46;90.38;93175.22;5053351;28;20231;-77
2024/01/16 00:49:36;;;;;;;0.45;0.45;;;;;;;3.44;90.59;93177.44;5052769;28;20212;-78
2024/01/16 00:52:03;;;;;;;0.57;0.57;;;;;;;3.50;90.87;93176.19;5053292;28;20802;-77
2024/01/16 00:54:30;;;;;;;0.57;0.57;;;;;;;3.38;90.71;93165.34;5052748;28;20292;-76
2024/01/16 00:56:59;;;;;;;1.00;1.00;;;;;;;3.18;91.44;93163.31;5052730;28;20511;-78
2024/01/16 00:59:26;;;;;;;0.40;0.40;;;;;;;3.06;92.00;93179.22;5053346;28;20787;-77
2024/01/16 01:01:53;;;;;;;1.67;1.58;;;;;;;3.06;89.81;93171.22;5052077;28;20200;-77
2024/01/16 01:04:20;;;;;;;0.20;0.20;;;;;;;3.23;91.30;93197.94;5052255;28;20226;-78
2024/01/16 01:06:46;;;;;;;0.10;0.10;;;;;;;3.42;92.29;93216.31;5039704;28;20208;-78
2024/01/16 01:09:13;;;;;;;1.40;1.30;;;;;;;3.18;90.13;93184.72;5052797;28;20214;-76
2024/01/16 01:11:40;;;;;;;0.40;0.40;;;;;;;3.23;89.67;93173.88;5042273;28;20296;-77
2024/01/16 01:14:08;;;;;;;0.22;0.22;;;;;;;3.33;90.74;93181.56;5052894;28;20204;-77
2024/01/16 01:16:55;;;;;;;0.20;0.20;;;;;;;3.58;90.91;93188.75;5052504;28;20227;-78
2024/01/16 01:19:24;;;;;;;0.20;0.20;;;;;;;3.27;89.31;93182.06;5051371;28;20212;-77
2024/01/16 01:21:51;;;;;;;0.30;0.30;;;;;;;3.27;90.78;93209.59;5047029;28;20211;-76
2024/01/16 01:24:18;;;;;;;0.82;0.82;;;;;;;3.37;90.83;93201.22;5052349;28;20640;-77
2024/01/16 01:26:45;;;;;;;0.20;0.20;;;;;;;3.32;90.99;93196.03;5033905;28;20196;-78
2024/01/16 01:29:13;;;;;;;0.20;0.20;;;;;;;3.45;91.28;93195.06;5052623;28;20208;-77
2024/01/16 01:31:40;;;;;;;0.20;0.20;;;;;;;3.56;91.78;93180.25;5044541;28;20219;-77
2024/01/16 01:34:07;;;;;;;0.17;0.17;;;;;;;3.79;91.67;93172.00;5046399;28;20591;-78
2024/01/16 01:36:34;;;;;;;0.40;0.40;;;;;;;3.86;89.86;93177.63;5051721;28;20337;-77
2024/01/16 01:39:01;;;;;;;0.20;0.20;;;;;;;3.93;91.36;93180.59;5051308;28;20212;-78
2024/01/16 01:41:27;;;;;;;0.22;0.22;;;;;;;4.00;90.79;93194.28;5049299;28;20216;-77
2024/01/16 01:43:54;;;;;;;0.20;0.20;;;;;;;3.80;89.85;93168.22;5046533;28;20207;-76
2024/01/16 01:46:23;;;;;;;0.65;0.55;;;;;;;3.73;92.22;93162.56;5051228;28;20664;-77
2024/01/16 01:48:51;;;;;;;0.20;0.20;;;;;;;3.88;91.46;93159.34;5050580;28;20218;-79
2024/01/16 01:51:20;;;;;;;0.20;0.20;;;;;;;4.05;92.74;93172.69;5040786;28;20208;-77
2024/01/16 01:53:51;;;;;;;0.20;0.20;;;;;;;3.97;90.65;93173.47;5051226;28;20603;-78
2024/01/16 01:56:19;;;;;;;0.20;0.20;;;;;;;4.26;90.73;93178.84;5051653;28;20215;-78
2024/01/16 01:58:48;;;;;;;0.30;0.30;;;;;;;4.47;91.34;93170.09;5048145;28;20704;-76
2024/01/16 02:01:17;;;;;;;1.65;0.50;;;;;;;4.06;89.89;93178.81;5030815;28;20208;-78
2024/01/16 02:03:47;;;;;;;0.50;0.50;;;;;;;4.09;91.50;93176.28;5042980;28;20199;-76
2024/01/16 02:06:15;;;;;;;0.20;0.20;;;;;;;4.14;91.57;93154.66;5040377;28;20211;-82
2024/01/16 02:08:42;;;;;;;4.13;1.08;;;;;;;4.18;92.66;93174.34;5050258;28;20211;-79
2024/01/16 02:11:09;;;;;;;0.55;0.55;;;;;;;4.40;91.96;93180.53;5052183;28;20231;-79
2024/01/16 02:13:36;;;;;;;0.38;0.38;;;;;;;4.57;91.83;93188.47;5023670;28;20237;-79
2024/01/16 02:16:05;;;;;;;0.32;0.32;;;;;;;4.57;91.16;93191.16;5043857;28;21303;-80
2024/01/16 02:18:32;;;;;;;0.20;0.20;;;;;;;4.33;91.71;93180.25;5049623;28;20238;-78
2024/01/16 02:21:02;;;;;;;0.20;0.20;;;;;;;4.28;92.46;93179.31;5051689;28;20556;-82
2024/01/16 02:23:34;;;;;;;0.30;0.30;;;;;;;4.18;93.97;93168.19;5049753;28;20208;-77
2024/01/16 02:26:02;;;;;;;0.20;0.20;;;;;;;3.99;93.74;93187.34;5051717;28;20215;-79
2024/01/16 02:28:30;;;;;;;0.20;0.20;;;;;;;4.00;94.36;93178.19;5043663;28;20204;-78
2024/01/16 02:31:00;;;;;;;0.35;0.35;;;;;;;4.09;94.26;93178.19;5036107;28;20219;-77
2024/01/16 02:33:27;;;;;;;0.20;0.20;;;;;;;4.26;94.63;93204.88;5046945;28;20280;-79
2024/01/16 02:35:55;;;;;;;0.25;0.25;;;;;;;4.27;94.58;93201.88;5047613;28;20208;-78
2024/01/16 02:38:22;;;;;;;0.20;0.20;;;;;;;4.55;95.52;93209.44;5048247;28;20228;-79
2024/01/16 02:40:52;;;;;;;0.40;0.40;;;;;;;4.52;94.35;93183.28;5047148;28;20215;-79
2024/01/16 02:43:21;;;;;;;0.98;0.95;;;;;;;4.69;93.97;93204.63;5050299;28;20613;-79
2024/01/16 02:45:49;;;;;;;0.30;0.30;;;;;;;4.73;94.20;93216.28;5048187;28;20714;-81
2024/01/16 02:48:16;;;;;;;0.20;0.20;;;;;;;4.71;94.55;93218.50;5051333;28;20255;-79
2024/01/16 02:50:43;;;;;;;0.28;0.28;;;;;;;4.81;95.29;93228.84;5048103;28;20212;-79
2024/01/16 02:53:13;;;;;;;0.20;0.20;;;;;;;4.29;94.09;93213.06;5051098;28;20215;-79
2024/01/16 02:55:40;;;;;;;0.20;0.20;;;;;;;4.37;94.32;93237.47;5050923;28;20242;-83
2024/01/16 02:58:09;;;;;;;0.20;0.20;;;;;;;4.07;95.35;93253.50;5051478;28;20227;-83
2024/01/16 03:00:35;;;;;;;0.20;0.20;;;;;;;3.81;95.78;93292.97;5051077;28;20227;-82
2024/01/16 03:03:02;;;;;;;0.40;0.40;;;;;;;3.82;96.91;93308.72;5052292;28;20223;-82
2024/01/16 03:05:29;;;;;;;0.20;0.20;;;;;;;3.90;96.22;93301.78;5042632;28;20622;-82
2024/01/16 03:07:56;;;;;;;0.60;0.60;;;;;;;4.14;95.87;93302.03;5055402;28;20614;-83
2024/01/16 03:10:24;;;;;;;1.15;0.50;;;;;;;4.48;95.87;93300.34;5043289;28;20204;-81
2024/01/16 03:12:51;;;;;;;0.20;0.20;;;;;;;4.64;94.96;93314.78;5047545;28;20310;-81
2024/01/16 03:15:20;;;;;;;0.20;0.20;;;;;;;4.81;94.96;93328.09;5050595;28;20214;-80
2024/01/16 03:17:46;;;;;;;0.20;0.20;;;;;;;4.75;93.67;93325.94;5055124;28;20317;-80
2024/01/16 03:20:13;;;;;;;0.50;0.50;;;;;;;4.59;94.50;93344.44;5055406;28;20211;-80
2024/01/16 03:22:40;;;;;;;0.93;0.85;;;;;;;4.76;95.33;93352.44;5055703;28;20668;-84
2024/01/16 03:25:09;;;;;;;0.40;0.40;;;;;;;4.79;94.65;93356.34;5054488;28;20570;-84
2024/01/16 03:27:36;;;;;;;0.20;0.20;;;;;;;4.59;95.99;93371.25;5056006;28;20694;-83
2024/01/16 03:30:03;;;;;;;0.20;0.20;;;;;;;4.40;100.00;93368.16;5055676;28;20243;-84
2024/01/16 03:32:32;;;;;;;0.38;0.38;;;;;;;4.71;100.00;93378.63;5055379;28;20211;-80
2024/01/16 03:34:58;;;;;;;0.20;0.20;;;;;;;4.70;100.00;93377.06;5054645;28;20204;-81
2024/01/16 03:37:25;;;;;;;0.75;0.75;;;;;;;4.75;100.00;93379.56;5054682;28;20235;-81
2024/01/16 03:39:54;;;;;;;0.28;0.28;;;;;;;4.60;100.00;93394.28;5055324;28;20211;-82
2024/01/16 03:42:22;;;;;;;0.20;0.20;;;;;;;4.58;100.00;93396.50;5049446;28;20212;-80
2024/01/16 03:44:49;;;;;;;0.20;0.20;;;;;;;4.36;100.00;93394.03;5056482;28;20289;-82
2024/01/16 03:47:17;;;;;;;0.20;0.20;;;;;;;4.31;100.00;93407.59;5055566;28;20220;-83
2024/01/16 03:49:46;;;;;;;0.40;0.40;;;;;;;4.06;100.00;93393.94;5055621;28;20214;-82
2024/01/16 03:52:13;;;;;;;0.30;0.30;;;;;;;4.16;100.00;93417.72;5054598;28;20203;-78
2024/01/16 03:54:40;;;;;;;0.20;0.20;;;;;;;4.07;100.00;93419.63;5055328;28;20211;-80
2024/01/16 03:57:07;;;;;;;0.20;0.20;;;;;;;4.00;100.00;93430.00;5054560;28;20196;-78
2024/01/16 03:59:33;;;;;;;0.30;0.30;;;;;;;3.99;100.00;93444.50;5054658;28;20326;-78
2024/01/16 04:02:03;;;;;;;0.40;0.40;;;;;;;4.02;100.00;93459.16;5054390;28;20595;-83
2024/01/16 04:04:30;;;;;;;0.10;0.10;;;;;;;3.95;100.00;93454.28;5054654;28;20575;-85
2024/01/16 04:06:58;;;;;;;0.20;0.20;;;;;;;3.99;100.00;93459.78;5049581;28;20204;-82
2024/01/16 04:09:25;;;;;;;0.65;0.50;;;;;;;3.86;100.00;93477.59;5054091;28;20210;-81
2024/01/16 04:11:52;;;;;;;0.10;0.10;;;;;;;3.79;100.00;93477.28;5052395;28;20608;-81
2024/01/16 04:14:19;;;;;;;0.20;0.20;;;;;;;3.91;100.00;93491.63;5053427;28;20208;-77
2024/01/16 04:16:47;;;;;;;0.40;0.40;;;;;;;4.16;100.00;93492.75;5048534;28;20287;-79
2024/01/16 04:19:17;;;;;;;0.20;0.20;;;;;;;3.78;100.00;93489.09;5045836;28;20227;-86
2024/01/16 04:21:44;;;;;;;0.20;0.20;;;;;;;3.61;100.00;93502.44;5049195;28;20272;-84
2024/01/16 04:24:12;;;;;;;0.30;0.30;;;;;;;3.50;100.00;93500.06;5047690;28;20212;-86
2024/01/16 04:26:39;;;;;;;0.20;0.20;;;;;;;3.42;100.00;93516.88;5049299;28;20224;-85
2024/01/16 04:29:06;;;;;;;0.40;0.40;;;;;;;3.53;100.00;93517.38;5054692;28;20215;-87
2024/01/16 04:31:41;;;;;;;0.63;0.63;;;;;;;3.50;100.00;93515.31;5054721;28;20736;-84
2024/01/16 04:34:08;;;;;;;0.20;0.20;;;;;;;3.32;100.00;93511.78;5035028;28;20585;-82
2024/01/16 04:36:35;;;;;;;0.20;0.20;;;;;;;3.31;100.00;93504.88;5044502;28;20200;-80
2024/01/16 04:39:03;;;;;;;0.20;0.20;;;;;;;3.38;100.00;93505.22;5052301;28;20597;-85
2024/01/16 04:41:31;;;;;;;0.20;0.20;;;;;;;3.39;100.00;93506.78;5054527;28;20254;-82
2024/01/16 04:43:58;;;;;;;0.40;0.40;;;;;;;3.53;100.00;93523.53;5053649;28;20208;-86
2024/01/16 04:46:25;;;;;;;0.25;0.25;;;;;;;3.51;100.00;93536.44;5055821;28;20299;-84
2024/01/16 04:48:52;;;;;;;0.20;0.20;;;;;;;3.36;100.00;93531.50;5053683;28;20207;-84
2024/01/16 04:51:19;;;;;;;0.20;0.20;;;;;;;3.42;100.00;93548.97;5055048;28;20218;-85
2024/01/16 04:53:46;;;;;;;0.20;0.20;;;;;;;3.42;100.00;93561.56;5045820;28;20552;-86
2024/01/16 04:56:12;;;;;;;0.20;0.20;;;;;;;3.30;100.00;93575.53;5056027;28;20764;-83
2024/01/16 04:58:40;;;;;;;0.52;0.52;;;;;;;3.14;100.00;93579.72;5048469;28;20285;-79
2024/01/16 05:01:08;;;;;;;0.20;0.20;;;;;;;3.09;100.00;93580.63;5056037;28;20236;-84
2024/01/16 05:03:34;;;;;;;0.30;0.30;;;;;;;3.02;100.00;93599.00;5056409;28;20239;-82
2024/01/16 05:06:01;;;;;;;0.35;0.35;;;;;;;2.97;100.00;93599.13;5055327;28;20302;-80
2024/01/16 05:08:28;;;;;;;1.35;0.30;;;;;;;2.98;100.00;93607.94;5054582;28;20211;-84
2024/01/16 05:10:55;;;;;;;0.20;0.20;;;;;;;2.88;100.00;93622.34;5054553;28;20242;-81
2024/01/16 05:13:22;;;;;;;0.20;0.20;;;;;;;2.94;100.00;93628.38;5055336;28;20461;-82
2024/01/16 05:15:50;;;;;;;0.20;0.20;;;;;;;3.00;100.00;93637.84;5054302;28;20643;-82
2024/01/16 05:18:17;;;;;;;0.25;0.25;;;;;;;2.93;100.00;93627.56;5056076;28;20223;-82
2024/01/16 05:20:44;;;;;;;0.20;0.20;;;;;;;3.00;100.00;93643.22;5055757;28;20204;-83
2024/01/16 05:23:11;;;;;;;0.30;0.30;;;;;;;2.96;100.00;93642.22;5041843;28;20211;-81
2024/01/16 05:25:39;;;;;;;0.77;0.77;;;;;;;3.19;100.00;93668.66;5051975;28;20200;-84
2024/01/16 05:28:06;;;;;;;0.47;0.47;;;;;;;3.09;100.00;93674.25;5045604;28;20204;-84
2024/01/16 05:30:33;;;;;;;1.38;0.88;;;;;;;3.15;100.00;93677.59;5055662;28;20207;-80
2024/01/16 05:33:02;;;;;;;0.85;0.75;;;;;;;3.16;99.42;93684.53;5055445;28;20215;-83
2024/01/16 05:35:28;;;;;;;0.77;0.75;;;;;;;3.20;99.21;93693.53;5056699;28;20285;-84
2024/01/16 05:37:59;;;;;;;0.20;0.20;;;;;;;3.11;99.32;93693.47;5055471;28;20231;-81
2024/01/16 05:40:25;;;;;;;0.30;0.30;;;;;;;3.20;99.23;93701.56;5055979;28;20217;-81
2024/01/16 05:42:52;;;;;;;0.20;0.20;;;;;;;3.11;98.26;93700.72;5042728;28;20211;-82
2024/01/16 05:45:21;;;;;;;0.20;0.20;;;;;;;3.12;98.04;93713.78;5052322;28;20234;-80
2024/01/16 05:47:48;;;;;;;0.15;0.15;;;;;;;3.10;97.57;93707.16;5054308;28;20230;-84
2024/01/16 05:50:18;;;;;;;0.20;0.20;;;;;;;3.19;97.19;93737.44;5055076;28;20253;-83
2024/01/16 05:52:45;;;;;;;0.20;0.20;;;;;;;3.17;96.59;93734.28;5041797;28;20203;-84
2024/01/16 05:55:11;;;;;;;0.20;0.20;;;;;;;3.25;96.98;93740.78;5050777;28;20204;-83
2024/01/16 05:57:38;;;;;;;0.20;0.20;;;;;;;3.11;96.37;93746.19;5054762;28;20219;-85
2024/01/16 06:00:06;;;;;;;0.30;0.30;;;;;;;3.08;96.11;93758.28;5050170;28;20232;-82
2024/01/16 06:02:40;;;;;;;0.22;0.22;;;;;;;3.19;95.33;93754.28;5042316;28;20234;-83
2024/01/16 06:05:08;;;;;;;0.20;0.20;;;;;;;3.17;95.17;93769.06;5053156;28;20200;-83
2024/01/16 06:07:38;;;;;;;0.45;0.45;;;;;;;3.18;95.37;93776.78;5053595;28;20587;-82
2024/01/16 06:10:05;;;;;;;0.70;0.45;;;;;;;3.12;95.71;93786.03;5053169;28;20211;-82
2024/01/16 06:12:32;;;;;;;1.05;0.95;;;;;;;3.12;95.31;93779.88;5043680;28;20207;-82
2024/01/16 06:14:59;;;;;;;1.45;0.63;;;;;;;3.18;95.15;93800.06;5054465;28;20215;-84
2024/01/16 06:17:26;;;;;;;0.80;0.80;;;;;;;3.12;95.94;93806.63;5040829;28;20566;-85
2024/01/16 06:19:53;;;;;;;0.88;0.70;;;;;;;3.25;95.04;93800.47;5050076;28;20239;-84
2024/01/16 06:22:20;;;;;;;0.20;0.20;;;;;;;3.16;94.83;93812.94;5045611;28;20211;-84
2024/01/16 06:24:48;;;;;;;0.20;0.20;;;;;;;3.10;95.33;93819.53;5054109;28;20199;-84
2024/01/16 06:27:18;;;;;;;0.20;0.20;;;;;;;3.16;94.86;93820.97;5055482;28;20208;-83
2024/01/16 06:29:48;;;;;;;0.20;0.20;;;;;;;3.13;95.32;93830.41;5050347;28;20201;-84
2024/01/16 06:32:15;;;;;;;0.20;0.20;;;;;;;3.02;95.12;93833.59;5048138;28;20888;-83
2024/01/16 06:34:42;;;;;;;0.20;0.20;;;;;;;2.95;95.32;93833.22;5047305;28;20223;-84
2024/01/16 06:37:09;;;;;;;0.80;0.77;;;;;;;2.96;95.41;93842.81;5037806;28;20211;-83
2024/01/16 06:39:37;;;;;;;0.30;0.30;;;;;;;2.98;95.32;93857.50;5056024;28;20220;-85
2024/01/16 06:42:06;;;;;;;0.20;0.20;;;;;;;2.86;95.15;93867.91;5042766;28;20232;-82
2024/01/16 06:44:33;;;;;;;0.73;0.73;;;;;;;2.68;95.37;93856.22;5041131;28;20572;-84
2024/01/16 06:47:00;;;;;;;0.30;0.30;;;;;;;2.60;95.95;93866.81;5055186;28;20591;-84
2024/01/16 06:49:27;;;;;;;1.33;1.23;;;;;;;2.60;93.88;93886.28;5038027;28;20220;-82
2024/01/16 06:51:54;;;;;;;0.38;0.38;;;;;;;2.40;93.25;93881.31;5036526;28;20204;-82
2024/01/16 06:54:23;;;;;;;0.20;0.20;;;;;;;2.63;91.64;93909.75;5038952;28;20511;-86
2024/01/16 06:56:50;;;;;;;0.20;0.20;;;;;;;2.59;89.29;93895.41;5044413;28;20215;-84
2024/01/16 06:59:21;;;;;;;0.20;0.20;;;;;;;2.61;88.72;93909.25;5042868;28;20562;-86
2024/01/16 07:01:49;;;;;;;0.20;0.20;;;;;;;2.62;87.66;93921.53;5031610;28;20570;-81
2024/01/16 07:04:16;;;;;;;0.20;0.20;;;;;;;2.57;88.29;93924.31;5037678;28;20207;-85
2024/01/16 07:06:43;;;;;;;0.35;0.35;;;;;;;2.52;88.39;93905.69;5044114;28;20764;-85
2024/01/16 07:09:10;;;;;;;0.20;0.20;;;;;;;2.69;88.20;93915.81;5048944;28;20572;-85
2024/01/16 07:11:38;;;;;;;0.20;0.20;;;;;;;2.58;88.21;93925.91;5041771;28;20207;-84
2024/01/16 07:14:08;;;;;;;0.20;0.20;;;;;;;2.52;88.72;93935.09;5042603;28;20615;-84
2024/01/16 07:16:37;;;;;;;0.20;0.20;;;;;;;2.68;88.36;93939.09;5049951;28;20200;-84
2024/01/16 07:19:03;;;;;;;0.30;0.30;;;;;;;2.78;87.95;93959.50;5048730;28;20297;-83
2024/01/16 07:21:30;;;;;;;0.20;0.20;;;;;;;2.91;87.76;93974.75;5044917;28;20555;-83
2024/01/16 07:23:57;;;;;;;0.20;0.20;;;;;;;2.72;87.21;93964.16;5043079;28;20287;-83
2024/01/16 07:26:25;;;;;;;0.20;0.20;;;;;;;2.74;87.17;93967.31;5051828;28;20624;-80
2024/01/16 07:28:51;;;;;;;0.20;0.20;;;;;;;2.77;87.38;93982.75;5051357;28;20222;-82
2024/01/16 07:31:24;;;;;;;0.20;0.20;;;;;;;2.73;87.45;93997.81;5043966;28;20569;-81
2024/01/16 07:33:56;;;;;;;0.20;0.20;;;;;;;2.76;87.79;93996.44;5045938;28;20211;-78
2024/01/16 07:36:23;;;;;;;0.20;0.20;;;;;;;2.75;87.33;94000.97;5051607;28;20249;-78
2024/01/16 07:38:52;;;;;;;0.20;0.20;;;;;;;2.75;87.47;94011.69;5050675;28;20602;-80
2024/01/16 07:41:19;;;;;;;0.20;0.20;;;;;;;2.89;87.43;94021.59;5030935;28;20622;-80
2024/01/16 07:43:48;;;;;;;0.20;0.20;;;;;;;2.83;87.03;94024.38;5031521;28;20295;-80
2024/01/16 07:46:16;;;;;;;0.20;0.20;;;;;;;2.79;86.92;94014.56;5049768;28;20614;-81
2024/01/16 07:48:43;;;;;;;0.20;0.20;;;;;;;2.80;86.75;94008.94;5051842;28;20246;-84
2024/01/16 07:51:11;;;;;;;0.10;0.10;;;;;;;2.90;86.44;94020.53;5054887;28;20239;-80
2024/01/16 07:53:38;;;;;;;0.20;0.20;;;;;;;2.90;86.55;94026.66;5053403;28;20223;-79
2024/01/16 07:56:05;;;;;;;0.20;0.20;;;;;;;3.15;85.81;94036.13;5045499;28;20548;-83
2024/01/16 07:58:32;;;;;;;0.20;0.20;;;;;;;3.03;85.44;94046.50;5050113;28;20239;-82
2024/01/16 08:01:00;;;;;;;0.35;0.35;;;;;;;2.95;86.20;94042.63;5054814;28;20231;-83
2024/01/16 08:03:27;;;;;;;0.15;0.15;;;;;;;3.19;86.46;94053.19;5048502;28;20243;-82
2024/01/16 08:05:53;;;;;;;0.20;0.20;;;;;;;3.09;86.51;94058.72;5042967;28;20265;-81
2024/01/16 08:08:22;;;;;;;0.20;0.20;;;;;;;3.36;86.40;94064.09;5054250;28;20212;-80
2024/01/16 08:10:48;;;;;;;0.35;0.28;;;;;;;3.29;85.79;94062.91;5054638;28;20208;-81
2024/01/16 08:13:18;;;;;;;0.20;0.20;;;;;;;3.20;86.59;94062.78;5054311;28;20200;-79
2024/01/16 08:15:45;;;;;;;0.20;0.20;;;;;;;3.36;85.42;94069.47;5054303;28;20234;-80
2024/01/16 08:18:12;;;;;;;0.20;0.20;;;;;;;3.12;86.24;94084.88;5053933;28;20215;-80
2024/01/16 08:20:39;;;;;;;0.57;0.57;;;;;;;2.97;85.74;94082.47;5052860;28;20211;-81
2024/01/16 08:23:05;;;;;;;0.20;0.20;;;;;;;3.16;86.64;94101.91;5054477;28;20577;-80
2024/01/16 08:25:35;;;;;;;0.10;0.10;;;;;;;3.33;85.53;94107.53;5053589;28;20309;-80
2024/01/16 08:28:04;;;;;;;0.20;0.20;;;;;;;3.04;85.94;94109.63;5053742;28;20207;-78
2024/01/16 08:30:31;;;;;;;0.20;0.20;;;;;;;3.10;86.52;94097.75;5056379;28;20290;-79
2024/01/16 08:32:58;;;;;;;0.20;0.20;;;;;;;3.02;85.65;94106.44;5056059;28;20223;-80
2024/01/16 08:35:25;;;;;;;0.40;0.40;;;;;;;3.02;85.79;94107.25;5055207;28;20322;-79
2024/01/16 08:37:52;;;;;;;0.20;0.20;;;;;;;3.03;86.17;94129.44;5056834;28;20214;-80
2024/01/16 08:40:19;;;;;;;0.30;0.30;;;;;;;2.77;86.60;94143.22;5048742;28;20224;-79
2024/01/16 08:42:51;;;;;;;0.20;0.20;;;;;;;2.73;86.64;94134.16;5053491;28;20208;-76
2024/01/16 08:45:18;;;;;;;0.20;0.20;;;;;;;2.84;86.57;94143.66;5049709;28;20199;-79
2024/01/16 08:47:44;;;;;;;0.20;0.20;;;;;;;2.53;86.85;94139.03;5053475;28;20275;-81
2024/01/16 08:50:14;;;;;;;0.13;0.13;;;;;;;2.76;86.68;94146.97;5053602;28;20210;-80
2024/01/16 08:52:41;;;;;;;0.20;0.20;;;;;;;3.01;86.76;94158.34;5040164;28;20572;-79
2024/01/16 08:55:09;;;;;;;0.20;0.20;;;;;;;3.03;85.17;94145.47;5052760;28;20684;-79
2024/01/16 08:57:39;;;;;;;0.20;0.20;;;;;;;2.85;86.06;94161.28;5033324;28;20603;-85
2024/01/16 09:00:12;;;;;;;0.20;0.20;;;;;;;2.81;86.14;94160.28;5035759;28;20600;-83
2024/01/16 09:02:39;;;;;;;0.20;0.20;;;;;;;2.95;85.35;94159.53;5049398;28;20207;-83
2024/01/16 09:05:06;;;;;;;0.20;0.20;;;;;;;2.99;85.01;94163.22;5052783;28;20261;-82
2024/01/16 09:07:33;;;;;;;0.20;0.20;;;;;;;3.18;84.45;94166.66;5053375;28;20238;-82
2024/01/16 09:10:00;;;;;;;0.22;0.22;;;;;;;3.02;83.92;94170.66;5052813;28;20291;-82
2024/01/16 09:12:27;;;;;;;0.20;0.20;;;;;;;3.21;84.14;94174.09;5052825;28;20207;-83
2024/01/16 09:14:57;;;;;;;0.20;0.20;;;;;;;3.07;83.91;94174.06;5052845;28;20257;-82
2024/01/16 09:17:26;;;;;;;0.20;0.20;;;;;;;3.17;83.69;94167.72;5052098;28;20606;-82
2024/01/16 09:19:53;;;;;;;0.20;0.20;;;;;;;3.24;82.54;94173.53;5052402;28;20314;-82
2024/01/16 09:22:23;;;;;;;0.47;0.30;;;;;;;3.35;81.67;94180.28;5052474;28;20208;-81
2024/01/16 09:24:51;;;;;;;0.20;0.20;;;;;;;3.37;81.14;94172.78;5049248;28;20213;-82
2024/01/16 09:27:19;;;;;;;0.20;0.20;;;;;;;3.24;81.69;94181.56;5042869;28;20304;-82
2024/01/16 09:29:46;;;;;;;0.20;0.20;;;;;;;3.43;80.58;94171.56;5052715;28;20602;-81
2024/01/16 09:32:13;;;;;;;0.20;0.20;;;;;;;3.32;80.91;94190.78;5051274;28;20200;-81
2024/01/16 09:34:44;;;;;;;0.57;0.57;;;;;;;3.23;80.23;94188.00;5052048;28;20269;-86
2024/01/16 09:37:14;;;;;;;0.20;0.20;;;;;;;3.15;81.34;94180.59;5051659;28;20639;-78
2024/01/16 09:39:41;;;;;;;0.20;0.20;;;;;;;3.35;80.54;94180.28;5052904;28;20332;-81
2024/01/16 09:42:08;;;;;;;0.20;0.20;;;;;;;3.56;80.65;94176.16;5048043;28;20637;-83
2024/01/16 09:44:38;;;;;;;0.20;0.20;;;;;;;3.68;78.95;94181.06;5053368;28;20640;-80
2024/01/16 09:47:09;;;;;;;0.40;0.40;;;;;;;3.79;79.02;94176.31;5048806;28;20263;-79
2024/01/16 09:49:39;;;;;;;0.20;0.20;;;;;;;4.03;78.06;94184.16;5040081;28;20208;-81
2024/01/16 09:52:09;;;;;;;0.10;0.10;;;;;;;3.78;78.43;94196.16;5052684;28;20218;-80
2024/01/16 09:54:40;;;;;;;0.20;0.20;;;;;;;3.69;78.09;94195.25;5052874;28;20214;-77
2024/01/16 09:57:09;;;;;;;0.40;0.40;;;;;;;3.49;78.78;94199.88;5051737;28;20191;-82
2024/01/16 09:59:42;;;;;;;0.20;0.20;;;;;;;3.45;78.55;94184.66;5033320;28;20327;-81
2024/01/16 10:02:12;;;;;;;0.30;0.30;;;;;;;3.35;77.99;94184.84;5052158;28;20656;-80
2024/01/16 10:04:42;;;;;;;0.17;0.17;;;;;;;3.42;78.95;94185.25;5044092;28;20211;-81
2024/01/16 10:07:13;;;;;;;0.20;0.20;;;;;;;3.55;78.79;94179.94;5046174;28;20278;-79
2024/01/16 10:09:40;;;;;;;0.20;0.20;;;;;;;3.47;79.25;94188.66;5051928;28;20200;-78
2024/01/16 10:12:07;;;;;;;0.20;0.20;;;;;;;3.39;79.27;94181.31;5052282;28;20294;-78
2024/01/16 10:14:34;;;;;;;0.20;0.20;;;;;;;3.74;77.75;94187.91;5051292;28;20208;-77
2024/01/16 10:17:06;;;;;;;0.20;0.20;;;;;;;4.02;76.35;94183.38;5051353;28;20223;-80
2024/01/16 10:19:35;;;;;;;0.25;0.25;;;;;;;4.00;76.77;94174.84;5052120;28;20598;-79
2024/01/16 10:22:03;;;;;;;0.20;0.20;;;;;;;4.03;76.41;94194.88;5044207;28;20259;-78
2024/01/16 10:24:35;;;;;;;1.27;0.75;;;;;;;4.11;75.98;94197.66;5046759;28;20257;-79
2024/01/16 10:27:03;;;;;;;0.20;0.20;;;;;;;4.12;75.11;94201.13;5050605;28;20219;-80
2024/01/16 10:29:31;;;;;;;0.20;0.20;;;;;;;4.00;76.45;94190.91;5046856;28;20203;-79
2024/01/16 10:31:58;;;;;;;0.20;0.20;;;;;;;4.20;75.75;94179.81;5051345;28;20570;-78
2024/01/16 10:34:25;;;;;;;0.20;0.20;;;;;;;4.38;75.11;94196.88;5050876;28;20199;-77
2024/01/16 10:36:52;;;;;;;0.20;0.20;;;;;;;4.76;74.46;94185.91;5051307;28;20670;-78
2024/01/16 10:39:20;;;;;;;0.20;0.20;;;;;;;4.25;74.00;94181.59;5046999;28;20228;-81
2024/01/16 10:41:57;;;;;;;0.20;0.20;;;;;;;4.48;74.13;94187.84;5053812;28;20212;-82
2024/01/16 10:44:24;;;;;;;0.70;0.40;;;;;;;4.44;72.68;94194.88;5032392;28;20222;-79
2024/01/16 10:46:52;;;;;;;0.20;0.20;;;;;;;4.05;74.11;94198.06;5053934;28;20243;-80
2024/01/16 10:49:20;;;;;;;0.20;0.20;;;;;;;4.13;75.08;94200.84;5052463;28;20254;-79
2024/01/16 10:51:52;;;;;;;0.20;0.20;;;;;;;4.53;73.76;94185.81;5051146;28;20215;-79
2024/01/16 10:54:21;;;;;;;0.20;0.20;;;;;;;4.57;72.87;94188.72;5039185;28;20215;-79
2024/01/16 10:56:48;;;;;;;0.20;0.20;;;;;;;4.49;71.73;94192.13;5051824;28;20249;-79
2024/01/16 10:59:25;;;;;;;0.20;0.20;;;;;;;4.60;72.36;94183.53;5049244;28;20231;-80
2024/01/16 11:02:00;;;;;;;0.25;0.25;;;;;;;4.31;70.70;94176.94;5029229;28;20200;-78
2024/01/16 11:04:29;;;;;;;0.20;0.20;;;;;;;4.49;71.02;94198.28;5043901;28;20202;-75
2024/01/16 11:06:56;;;;;;;0.20;0.20;;;;;;;4.46;69.49;94203.44;5037117;28;20590;-75
2024/01/16 11:09:23;;;;;;;0.20;0.20;;;;;;;4.22;70.53;94198.28;5032311;28;20211;-74
2024/01/16 11:11:54;;;;;;;0.20;0.20;;;;;;;4.45;70.32;94202.63;5034413;28;20583;-77
2024/01/16 11:14:26;;;;;;;0.20;0.20;;;;;;;4.65;70.95;94204.09;5031221;28;20656;-76
2024/01/16 11:16:54;;;;;;;2.05;1.20;;;;;;;4.52;70.31;94215.63;5043208;28;20369;-74
2024/01/16 11:19:22;;;;;;;0.20;0.20;;;;;;;4.88;70.43;94211.13;5043154;28;20216;-77
2024/01/16 11:21:49;;;;;;;0.40;0.40;;;;;;;4.88;70.61;94211.13;5050461;28;20204;-78
2024/01/16 11:24:16;;;;;;;0.40;0.40;;;;;;;4.62;72.99;94207.38;5051567;28;20215;-79
2024/01/16 11:26:43;;;;;;;0.30;0.30;;;;;;;5.18;77.20;94198.09;5045047;28;20199;-76
2024/01/16 11:29:39;;;;;;;0.20;0.20;;;;;;;5.07;72.79;94208.25;5054443;28;20579;-76
2024/01/16 11:32:06;;;;;;;0.30;0.30;;;;;;;5.03;73.45;94206.50;5047551;28;20199;-78
2024/01/16 11:34:55;;;;;;;0.20;0.20;;;;;;;4.78;74.19;94213.22;5054641;28;20211;-78
2024/01/16 11:37:28;;;;;;;1.10;1.10;;;;;;;4.92;73.40;94201.34;5048208;28;20283;-77
2024/01/16 11:40:23;;;;;;;1.38;1.38;;;;;;;4.75;73.62;94217.31;5054470;28;20251;-79
2024/01/16 11:42:52;;;;;;;0.20;0.20;;;;;;;4.52;73.46;94215.63;5049096;28;20211;-79
2024/01/16 11:45:53;;;;;;;1.38;1.30;;;;;;;4.37;74.26;94215.97;5047509;28;20220;-80